McDaniel, Maryland
Current Conditions -  °F | °C
As of 12:50 PM on Friday 28 Nov 2014 (Local Time) from KESN Reporting Station
Broken Clouds Broken Clouds  
Wind Chill: 33°   Ceiling: 5000
Heat Index: 41°   Visibility: 10mi
Dew Point: 21°   Wind: 14mph
Humidity: 45%   Direction: 330°NNW
Pressure: 30.29"   Gusts: 24mph
Location:  38.82°N, 76.28°W
Report Text: KESN 281750Z 33012G21KT 10SM BKN050 05/M06 A3029
Loading
Personal Weather Stations






























Interactive Weather Map New forecast layout! Learn more

10-Day Weather Forecast

Advertisements
Track Severe Weather on mobile